Fieldsville, Vermont
Current Conditions -  °F | °C
As of 3:54 AM on Sunday 23 Nov 2014 (Local Time) from KVSF Reporting Station
Light Rain Light Rain  
Wind Chill: 38°   Ceiling: 6000
Heat Index: 42°   Visibility: 10mi
Dew Point: 39°   Wind: 7mph
Humidity: 89%   Direction: 200°SSW
Pressure: 30.03"   Gusts: NA
Location:  43.4897°N, 72.4482°W
Report Text: KVSF 230854Z AUTO 20006KT 10SM -RA FEW029 BKN060 OVC075 06/04 A3003 RMK AO2 SLP173 P0001 60001 T00560039 51006
Loading
Personal Weather Stations






























Interactive Weather Map New forecast layout! Learn more

10-Day Weather Forecast

Advertisements
Track Severe Weather on mobile